KPZQ METAR Reports


Rogers City, Presque Isle County Airport, MI, United States (KPZQ) 45-24-25N 083-48-46W
Dec 04, 2021 - 08:35 PM EST / 2021.12.05 0135 UTC
Wind: from the WNW (290 degrees) at 9 MPH (8 KT) gusting to 18 MPH (16 KT) (direction variable):0
Visibility: 10 mile(s):0
Sky conditions: mostly cloudy
Temperature: 28.8 F (-1.8 C)
Windchill: 21 F (-6 C):1
Dew Point: 18.5 F (-7.5 C)
Relative Humidity: 65%
Pressure (altimeter): 30.17 in. Hg (1021 hPa)
ob: KPZQ 050135Z AUTO 29008G16KT 240V300 10SM SCT055 BKN065 M02/M07 A3017 RMK AO2 T10181075
cycle: 1

 

Rogers City METAR Meteogram

Weather Chart

Nearby METAR Reports

KPZQ - Rogers City, Michigan, USA
Distance from station: SSW 1mi, 2km
Updated: Sat, 04-Dec-2021 8:15pm EST
Mostly cloudy
Mostly cloudy
 Wind from WNW
Wind: WNW 10 mph , 17 km/h, Gust: 20 mph , 31 km/h
Temperature: 28°F , -2°C
Wind Chill: 19°F , -7°C
Dew Point: 19°F , -7°C
Humidity: 69%
Barometer: 30.17 inHg , 1021.7 hPa
Clouds: Mostly cloudy
Visibility: 10 miles , 16 km
Cloud details: Mostly cloudy 5500 ft
2021/12/05 01:15 KPZQ 050115Z AUTO 29009G17KT 10SM BKN055 M02/M07 A3017 RMK AO2 T10171073
KAPN - Alpena, Michigan, USA
Distance from station: SSE 27mi, 43km
Updated: Sat, 04-Dec-2021 7:54pm EST
NOT Current
Mostly cloudy
Mostly cloudy
 Wind from W
Wind: W 6 mph , 9 km/h
Temperature: 28°F , -2°C
Wind Chill: 21°F , -6°C
Dew Point: 23°F , -5°C
Humidity: 80%
Barometer: 30.16 inHg , 1021.3 hPa
Clouds: Mostly cloudy
Visibility: 10 miles , 16 km
Cloud details: Mostly cloudy 6500 ft
2021/12/05 00:54 KAPN 050054Z AUTO 26005KT 10SM BKN065 M02/M05 A3016 RMK AO2 SLP223 T10221050
 
KSLH - Cheboygan, Michigan, USA
Distance from station: WNW 38mi, 61km
Updated: Sat, 04-Dec-2021 8:15pm EST
Overcast
Overcast
 Wind from W
Wind: W 14 mph , 22 km/h, Gust: 20 mph , 31 km/h
Temperature: 30°F , -1°C
Wind Chill: 19°F , -7°C
Dew Point: 19°F , -7°C
Humidity: 64%
Barometer: 30.16 inHg , 1021.3 hPa
Clouds: Overcast
Visibility: 10 miles , 16 km
Cloud details: Partly cloudy 3500 ft
Partly cloudy 4200 ft
Overcast 5500 ft
2021/12/05 01:15 KSLH 050115Z AUTO 28012G17KT 10SM SCT035 SCT042 OVC055 M01/M07 A3016 RMK AO2
KDRM - Drummond Is, Michigan, USA
Distance from station: N 40mi, 65km
Updated: Sat, 04-Dec-2021 8:35pm EST
Mostly cloudy
Mostly cloudy
 Wind from W
Wind: W 9 mph , 15 km/h
Temperature: 28°F , -2°C
Wind Chill: 19°F , -7°C
Dew Point: 23°F , -5°C
Humidity: 80%
Barometer: 30.13 inHg , 1020.3 hPa
Clouds: Mostly cloudy
Visibility: 10 miles , 16 km
Cloud details: Mostly cloudy 1800 ft
Mostly cloudy 2400 ft
2021/12/05 01:35 KDRM 050135Z AUTO 28008KT 260V360 10SM BKN018 BKN024 M02/M05 A3013 RMK AO2 T10211047
 
KPLN - Pellston, Michigan, USA
Distance from station: WNW 49mi, 79km
Updated: Sat, 04-Dec-2021 7:54pm EST
NOT Current
Overcast
Overcast
 Wind from NW
Wind: NW 17 mph , 28 km/h, Gust: 28 mph , 44 km/h
Temperature: 30°F , -1°C
Wind Chill: 18°F , -8°C
Dew Point: 16°F , -9°C
Humidity: 55%
Barometer: 30.18 inHg , 1022 hPa
Clouds: Overcast
Visibility: 10 miles , 16 km
Cloud details: Overcast 6000 ft
2021/12/05 00:54 KPLN 050054Z AUTO 31015G24KT 10SM OVC060 M01/M09 A3018 RMK AO2 PK WND 31026/0043 SLP229 T10111089 $
KMCD - Mackinac Island, Michigan, USA
Distance from station: NW 50mi, 80km
Updated: Sat, 04-Dec-2021 8:15pm EST
Clear
Clear
 Wind from WNW
Wind: WNW 25 mph , 41 km/h, Gust: 35 mph , 56 km/h
Temperature: 28°F , -2°C
Wind Chill: 13°F , -11°C
Dew Point: 19°F , -7°C
Humidity: 69%
Barometer: 30.16 inHg , 1021.3 hPa
Clouds: Clear
Visibility: 10 miles , 16 km
2021/12/05 01:15 KMCD 050115Z AUTO 29022G30KT 10SM CLR M02/M07 A3016 RMK AO2 T10231070